createdAt,value
2023-01-30T00:01:05.487Z,-2.40
2023-01-30T00:03:34.071Z,-2.40
2023-01-30T00:06:01.533Z,-2.40
2023-01-30T00:08:29.275Z,-2.41
2023-01-30T00:10:57.587Z,-2.40
2023-01-30T00:13:25.580Z,-2.39
2023-01-30T00:15:53.115Z,-2.37
2023-01-30T00:18:21.636Z,-2.36
2023-01-30T00:20:49.025Z,-2.34
2023-01-30T00:23:16.517Z,-2.32
2023-01-30T00:25:46.173Z,-2.31
2023-01-30T00:28:14.493Z,-2.31
2023-01-30T00:30:42.922Z,-2.32
2023-01-30T00:33:10.772Z,-2.33
2023-01-30T00:35:45.893Z,-2.35
2023-01-30T00:38:13.734Z,-2.35
2023-01-30T00:40:41.913Z,-2.36
2023-01-30T00:43:32.173Z,-2.35
2023-01-30T00:46:18.940Z,-2.37
2023-01-30T00:48:46.490Z,-2.38
2023-01-30T00:51:13.800Z,-2.38
2023-01-30T00:53:41.698Z,-2.38
2023-01-30T00:56:09.224Z,-2.38
2023-01-30T00:58:36.682Z,-2.37
2023-01-30T01:01:04.591Z,-2.36
2023-01-30T01:03:32.742Z,-2.36
2023-01-30T01:06:00.942Z,-2.36
2023-01-30T01:08:28.396Z,-2.36
2023-01-30T01:10:58.175Z,-2.35
2023-01-30T01:13:26.947Z,-2.34
2023-01-30T01:15:54.381Z,-2.35
2023-01-30T01:18:21.783Z,-2.35
2023-01-30T01:20:49.168Z,-2.36
2023-01-30T01:23:17.935Z,-2.36
2023-01-30T01:25:46.027Z,-2.37
2023-01-30T01:28:13.373Z,-2.38
2023-01-30T01:30:40.695Z,-2.38
2023-01-30T01:33:10.826Z,-2.36
2023-01-30T01:35:41.309Z,-2.35
2023-01-30T01:38:08.692Z,-2.33
2023-01-30T01:40:55.036Z,-2.31
2023-01-30T01:43:23.920Z,-2.30
2023-01-30T01:45:54.982Z,-2.29
2023-01-30T04:50:44.327Z,-2.75
2023-01-30T04:53:13.096Z,-2.73
2023-01-30T04:55:40.560Z,-2.70
2023-01-30T04:58:08.351Z,-2.65
2023-01-30T05:00:35.778Z,-2.61
2023-01-30T05:03:06.164Z,-2.56
2023-01-30T05:05:34.179Z,-2.52
2023-01-30T05:08:02.942Z,-2.46
2023-01-30T05:10:30.887Z,-2.42
2023-01-30T05:13:05.279Z,-2.39
2023-01-30T05:15:33.030Z,-2.35
2023-01-30T05:18:00.853Z,-2.34
2023-01-30T05:20:28.307Z,-2.32
2023-01-30T05:22:55.659Z,-2.30
2023-01-30T05:25:23.395Z,-2.28
2023-01-30T05:27:50.985Z,-2.26
2023-01-30T05:30:19.201Z,-2.24
2023-01-30T05:32:46.834Z,-2.22
2023-01-30T05:35:14.297Z,-2.19
2023-01-30T05:37:42.246Z,-2.18
2023-01-30T05:40:10.547Z,-2.16
2023-01-30T05:42:37.881Z,-2.14
2023-01-30T05:45:06.774Z,-2.12
2023-01-30T05:47:34.506Z,-2.09
2023-01-30T05:50:02.064Z,-2.09
2023-01-30T05:52:30.206Z,-2.07
2023-01-30T05:54:57.863Z,-2.07
2023-01-30T05:57:25.567Z,-2.06
2023-01-30T05:59:52.951Z,-2.06
2023-01-30T06:02:20.397Z,-2.05
2023-01-30T06:04:47.808Z,-2.04
2023-01-30T06:07:15.655Z,-2.03
2023-01-30T06:09:43.508Z,-2.01
2023-01-30T06:12:13.782Z,-1.99
2023-01-30T06:14:41.767Z,-1.99
2023-01-30T06:17:09.755Z,-1.99
2023-01-30T06:19:37.114Z,-1.99
2023-01-30T06:22:04.482Z,-2.00
2023-01-30T06:24:33.001Z,-1.99
2023-01-30T06:27:00.438Z,-1.99
2023-01-30T06:29:30.300Z,-1.97
2023-01-30T06:31:57.937Z,-1.97
2023-01-30T06:34:25.300Z,-1.96
2023-01-30T06:36:53.013Z,-1.95
2023-01-30T06:39:20.680Z,-1.94
2023-01-30T06:41:48.375Z,-1.93
2023-01-30T06:44:15.889Z,-1.93
2023-01-30T06:46:43.539Z,-1.92
2023-01-30T06:49:10.867Z,-1.90
2023-01-30T06:51:38.449Z,-1.89
2023-01-30T06:54:05.985Z,-1.87
2023-01-30T06:56:33.274Z,-1.83
2023-01-30T06:59:00.699Z,-1.81
2023-01-30T07:01:29.062Z,-1.80
2023-01-30T07:03:56.741Z,-1.79
2023-01-30T07:06:26.645Z,-1.76
2023-01-30T07:08:58.361Z,-1.73
2023-01-30T07:11:26.239Z,-1.70
2023-01-30T07:13:53.839Z,-1.67
2023-01-30T07:16:23.639Z,-1.62
2023-01-30T07:18:52.318Z,-1.60
2023-01-30T07:21:20.148Z,-1.59
2023-01-30T07:23:47.489Z,-1.57
2023-01-30T07:26:15.100Z,-1.57
2023-01-30T07:28:42.742Z,-1.57
2023-01-30T07:31:10.198Z,-1.57
2023-01-30T07:33:37.677Z,-1.56
2023-01-30T07:36:05.246Z,-1.53
2023-01-30T07:38:32.673Z,-1.53
2023-01-30T07:41:00.073Z,-1.53
2023-01-30T07:43:27.483Z,-1.52
2023-01-30T07:45:55.156Z,-1.52
2023-01-30T07:48:22.546Z,-1.51
2023-01-30T07:50:56.160Z,-1.51
2023-01-30T07:53:24.514Z,-1.49
2023-01-30T07:55:53.055Z,-1.46
2023-01-30T07:58:20.468Z,-1.43
2023-01-30T08:00:48.968Z,-1.40
2023-01-30T08:03:16.999Z,-1.37
2023-01-30T08:05:47.469Z,-1.34
2023-01-30T08:08:15.215Z,-1.33
2023-01-30T08:10:45.349Z,-1.32
2023-01-30T08:13:13.013Z,-1.28
2023-01-30T08:15:40.794Z,-1.25
2023-01-30T08:18:08.246Z,-1.24
2023-01-30T08:20:35.900Z,-1.23
2023-01-30T08:23:03.310Z,-1.23
2023-01-30T08:25:35.130Z,-1.23
2023-01-30T08:28:02.864Z,-1.21
2023-01-30T08:30:30.669Z,-1.19
2023-01-30T08:32:58.267Z,-1.17
2023-01-30T08:35:26.144Z,-1.15
2023-01-30T08:37:54.013Z,-1.13
2023-01-30T08:40:21.782Z,-1.09
2023-01-30T08:42:49.196Z,-1.06
2023-01-30T08:45:16.721Z,-1.02
2023-01-30T08:47:44.160Z,-1.00
2023-01-30T08:50:13.412Z,-0.96
2023-01-30T08:52:41.133Z,-0.92
2023-01-30T08:55:09.178Z,-0.86
2023-01-30T08:57:39.483Z,-0.81
2023-01-30T09:00:08.737Z,-0.74
2023-01-30T09:02:36.332Z,-0.68
2023-01-30T09:05:08.210Z,-0.63
2023-01-30T09:07:36.149Z,-0.61
2023-01-30T09:10:04.708Z,-0.59
2023-01-30T09:12:32.923Z,-0.59
2023-01-30T09:15:00.465Z,-0.59
2023-01-30T09:17:28.510Z,-0.62
2023-01-30T09:19:55.857Z,-0.63
2023-01-30T09:22:23.377Z,-0.63
2023-01-30T09:24:50.778Z,-0.61
2023-01-30T09:27:18.543Z,-0.57
2023-01-30T09:29:46.030Z,-0.53
2023-01-30T09:32:13.627Z,-0.50
2023-01-30T09:34:41.023Z,-0.49
2023-01-30T09:37:09.521Z,-0.52
2023-01-30T09:39:37.083Z,-0.56
2023-01-30T09:42:09.878Z,-0.57
2023-01-30T09:44:57.826Z,-0.56
2023-01-30T09:47:38.404Z,-0.57
2023-01-30T09:50:40.315Z,-0.62
2023-01-30T09:53:25.477Z,-0.69
2023-01-30T09:55:52.963Z,-0.76
2023-01-30T13:41:50.114Z,-1.09
2023-01-30T13:44:22.249Z,-1.09
2023-01-30T13:46:50.739Z,-1.06
2023-01-30T13:49:26.028Z,-1.03
2023-01-30T13:52:00.488Z,-0.98
2023-01-30T13:54:45.455Z,-0.94
2023-01-30T13:57:25.059Z,-0.90
2023-01-30T14:00:10.697Z,-0.86
2023-01-30T14:03:03.888Z,-0.83
2023-01-30T14:05:50.855Z,-0.80
2023-01-30T14:08:23.187Z,-0.78
2023-01-30T14:10:51.611Z,-0.75
2023-01-30T14:13:19.800Z,-0.72
2023-01-30T14:15:57.304Z,-0.71
2023-01-30T14:18:35.895Z,-0.69
2023-01-30T14:21:24.296Z,-0.69
2023-01-30T14:23:56.911Z,-0.69
2023-01-30T14:26:52.052Z,-0.69
2023-01-30T14:29:37.924Z,-0.68
2023-01-30T14:32:13.467Z,-0.68
2023-01-30T14:34:45.330Z,-0.68
2023-01-30T14:37:38.236Z,-0.69
2023-01-30T14:40:20.976Z,-0.71
2023-01-30T14:43:20.383Z,-0.72
2023-01-30T14:46:00.705Z,-0.72
2023-01-30T14:48:56.550Z,-0.72
2023-01-30T14:51:37.263Z,-0.73
2023-01-30T14:54:14.627Z,-0.73
2023-01-30T14:57:05.783Z,-0.74
2023-01-30T14:59:34.520Z,-0.75
2023-01-30T15:02:07.962Z,-0.74
2023-01-30T15:04:56.922Z,-0.74
2023-01-30T15:07:49.115Z,-0.76
2023-01-30T15:10:43.057Z,-0.76
2023-01-30T15:13:29.629Z,-0.76
2023-01-30T15:16:20.964Z,-0.77
2023-01-30T15:18:55.244Z,-0.78
2023-01-30T15:21:28.821Z,-0.78
2023-01-30T15:24:04.797Z,-0.77
2023-01-30T15:27:04.817Z,-0.76
2023-01-30T15:29:55.693Z,-0.76
2023-01-30T15:32:24.867Z,-0.76
2023-01-30T15:34:57.915Z,-0.76
2023-01-30T15:37:51.578Z,-0.78
2023-01-30T15:40:21.412Z,-0.79
2023-01-30T15:43:18.183Z,-0.81
2023-01-30T15:45:49.252Z,-0.84
2023-01-30T15:48:38.963Z,-0.86
2023-01-30T15:51:10.997Z,-0.87
2023-01-30T15:53:40.237Z,-0.88
2023-01-30T15:56:09.625Z,-0.87
2023-01-30T15:58:39.797Z,-0.88
2023-01-30T16:01:09.696Z,-0.87
2023-01-30T16:03:40.585Z,-0.85
2023-01-30T16:06:37.901Z,-0.85
2023-01-30T16:09:11.698Z,-0.84
2023-01-30T16:11:40.736Z,-0.83
2023-01-30T16:14:19.672Z,-0.83
2023-01-30T16:16:48.904Z,-0.82
2023-01-30T16:19:37.303Z,-0.81
2023-01-30T16:22:06.864Z,-0.80
2023-01-30T16:24:35.758Z,-0.81
2023-01-30T16:27:06.337Z,-0.80
2023-01-30T16:29:54.121Z,-0.80
2023-01-30T16:32:27.789Z,-0.78
2023-01-30T16:35:26.835Z,-0.79
2023-01-30T16:37:59.071Z,-0.78
2023-01-30T16:40:44.171Z,-0.77
2023-01-30T16:43:23.820Z,-0.76
2023-01-30T16:45:52.451Z,-0.76
2023-01-30T16:48:21.361Z,-0.75
2023-01-30T16:51:00.228Z,-0.74
2023-01-30T16:53:28.947Z,-0.73
2023-01-30T16:56:01.614Z,-0.72
2023-01-30T16:58:33.402Z,-0.71
2023-01-30T17:01:03.031Z,-0.71
2023-01-30T17:03:34.022Z,-0.71
2023-01-30T17:06:06.391Z,-0.72
2023-01-30T17:08:54.240Z,-0.72
2023-01-30T17:11:29.633Z,-0.74
2023-01-30T17:14:16.031Z,-0.74
2023-01-30T17:16:46.062Z,-0.75
2023-01-30T17:19:15.113Z,-0.75
2023-01-30T17:21:54.466Z,-0.76
2023-01-30T17:24:22.489Z,-0.76
2023-01-30T17:26:52.386Z,-0.75
2023-01-30T17:29:41.417Z,-0.74
2023-01-30T17:32:10.484Z,-0.74
2023-01-30T17:34:40.957Z,-0.74
2023-01-30T17:37:18.387Z,-0.74
2023-01-30T17:39:46.021Z,-0.74
2023-01-30T17:42:14.465Z,-0.73
2023-01-30T17:44:42.694Z,-0.74
2023-01-30T17:47:13.370Z,-0.73
2023-01-30T22:16:38.863Z,-2.56
2023-01-30T22:19:08.782Z,-2.58
2023-01-30T22:21:40.081Z,-2.56
2023-01-30T22:24:10.037Z,-2.54
2023-01-30T22:26:39.835Z,-2.52
2023-01-30T22:29:09.292Z,-2.47
2023-01-30T22:31:40.904Z,-2.43
2023-01-30T22:34:09.914Z,-2.40
2023-01-30T22:36:39.534Z,-2.36
2023-01-30T22:39:09.105Z,-2.31
2023-01-30T22:41:38.661Z,-2.26
2023-01-30T22:44:09.799Z,-2.24
2023-01-30T22:46:40.082Z,-2.21
2023-01-30T22:49:10.411Z,-2.19
2023-01-30T22:51:44.044Z,-2.16
2023-01-30T22:54:17.264Z,-2.14
2023-01-30T22:56:48.767Z,-2.13
2023-01-30T22:59:18.228Z,-2.10
2023-01-30T23:01:48.410Z,-2.10
2023-01-30T23:04:19.256Z,-2.10
2023-01-30T23:06:48.807Z,-2.09
2023-01-30T23:09:20.059Z,-2.09
2023-01-30T23:12:11.277Z,-2.09
2023-01-30T23:14:40.882Z,-2.07
2023-01-30T23:17:30.718Z,-2.06
2023-01-30T23:19:59.926Z,-2.06
2023-01-30T23:22:28.958Z,-2.04
2023-01-30T23:24:57.975Z,-2.05
2023-01-30T23:27:27.393Z,-2.05
2023-01-30T23:29:56.376Z,-2.03
2023-01-30T23:32:25.423Z,-2.06
2023-01-30T23:34:55.327Z,-2.07
2023-01-30T23:37:44.623Z,-2.08
2023-01-30T23:40:14.573Z,-2.08
2023-01-30T23:42:43.993Z,-2.06
2023-01-30T23:45:13.683Z,-2.03
2023-01-30T23:47:43.891Z,-2.02
2023-01-30T23:50:13.366Z,-2.01
2023-01-30T23:52:44.564Z,-2.00
2023-01-30T23:55:13.863Z,-1.98
2023-01-30T23:57:43.564Z,-1.98
